Time;durP1;ratioP1;P1;durP2;ratioP2;P2;SDS_P1;SDS_P2;PMS_P1;PMS_P2;Temp;Humidity;BMP_temperature;BMP_pressure;BME280_temperature;BME280_humidity;BME280_pressure;Samples;Min_cycle;Max_cycle;Signal;HPM_P1;HPM_P2
2022/06/22 07:14:39;;;;;;;5.53;1.77;;;;;;;;;;6279687;22;20205;-91
2022/06/22 07:22:07;;;;;;;4.72;1.70;;;;;;;;;;6280745;22;20658;-90
2022/06/22 07:28:54;;;;;;;7.13;2.38;;;;;;;;;;6281402;22;20185;-90
2022/06/22 07:32:20;;;;;;;8.15;2.15;;;;;;;;;;6282421;22;20169;-90
2022/06/22 07:35:46;;;;;;;9.65;2.20;;;;;;;;;;6282348;22;20157;-91
2022/06/22 07:42:40;;;;;;;6.40;3.42;;;;;;;;;;6282651;22;20185;-91
2022/06/22 11:12:02;;;;;;;9.18;1.92;;;;;;;;;;6243323;22;20299;-91
2022/06/22 11:15:39;;;;;;;11.68;2.20;;;;;;;;;;6248799;23;20175;-91
2022/06/22 11:19:19;;;;;;;12.00;2.30;;;;;;;;;;6248135;22;20234;-92
2022/06/22 11:22:38;;;;;;;10.93;2.33;;;;;;;;;;6246524;22;20171;-91
2022/06/22 11:33:22;;;;;;;7.57;2.33;;;;;;;;;;6246190;23;20161;-90
2022/06/22 11:36:35;;;;;;;7.15;2.08;;;;;;;;;;6245049;22;20150;-92
2022/06/22 11:40:00;;;;;;;10.00;2.00;;;;;;;;;;6246395;22;20202;-92
2022/06/22 11:43:28;;;;;;;8.77;2.28;;;;;;;;;;6245369;22;20293;-90
2022/06/22 11:46:54;;;;;;;9.82;2.17;;;;;;;;;;6268076;22;20171;-90
2022/06/22 11:50:39;;;;;;;7.85;3.55;;;;;;;;;;6246115;22;20174;-92
2022/06/22 11:54:10;;;;;;;11.85;2.60;;;;;;;;;;6246778;22;20165;-90
2022/06/22 11:57:46;;;;;;;8.45;2.58;;;;;;;;;;6242403;22;20182;-92
2022/06/22 12:01:22;;;;;;;7.65;2.28;;;;;;;;;;6237721;22;20194;-91
2022/06/22 12:05:02;;;;;;;23.75;4.22;;;;;;;;;;6244718;22;20205;-89
2022/06/22 12:08:30;;;;;;;8.73;2.30;;;;;;;;;;6245043;23;20170;-92
2022/06/22 12:11:47;;;;;;;13.18;2.17;;;;;;;;;;6248896;22;20174;-91
2022/06/22 12:15:09;;;;;;;8.75;2.38;;;;;;;;;;6246677;23;20242;-90
2022/06/22 12:18:23;;;;;;;8.85;2.50;;;;;;;;;;6245402;23;20297;-90
2022/06/22 12:25:56;;;;;;;3.95;1.83;;;;;;;;;;6246365;23;20170;-91
2022/06/22 12:29:26;;;;;;;6.93;2.40;;;;;;;;;;6242444;22;20174;-91
2022/06/22 12:36:26;;;;;;;10.00;2.40;;;;;;;;;;6240757;23;20249;-91
2022/06/22 12:43:37;;;;;;;9.95;2.50;;;;;;;;;;6245344;23;20190;-86
2022/06/22 12:47:11;;;;;;;13.60;2.92;;;;;;;;;;6244139;23;20182;-91
2022/06/22 12:51:05;;;;;;;9.98;2.55;;;;;;;;;;6244840;22;20167;-89
2022/06/22 12:58:15;;;;;;;7.80;2.20;;;;;;;;;;6158294;22;20625;-92
2022/06/22 13:01:39;;;;;;;8.23;2.35;;;;;;;;;;6243644;23;20166;-92
2022/06/22 13:05:08;;;;;;;8.55;2.42;;;;;;;;;;6244012;23;20166;-91
2022/06/22 13:08:28;;;;;;;7.40;2.47;;;;;;;;;;6247333;23;20174;-91
2022/06/22 13:11:37;;;;;;;5.32;2.88;;;;;;;;;;6242665;23;20179;-91
2022/06/22 13:14:46;;;;;;;6.13;3.05;;;;;;;;;;6244111;23;20170;-91
2022/06/22 13:17:56;;;;;;;6.03;2.60;;;;;;;;;;6247329;23;20219;-94
2022/06/22 13:21:05;;;;;;;5.32;2.90;;;;;;;;;;6244378;23;20210;-91
2022/06/22 13:24:14;;;;;;;6.18;2.53;;;;;;;;;;6244105;23;20166;-89
2022/06/22 13:27:26;;;;;;;10.00;2.35;;;;;;;;;;6243180;23;20174;-89
2022/06/22 13:30:43;;;;;;;4.63;2.42;;;;;;;;;;6242021;23;20166;-93
2022/06/22 13:34:11;;;;;;;7.55;2.80;;;;;;;;;;6242885;23;20170;-91
2022/06/22 13:37:59;;;;;;;7.97;2.95;;;;;;;;;;6243909;22;20170;-93
2022/06/22 13:41:16;;;;;;;7.45;2.63;;;;;;;;;;6243320;23;20191;-91
2022/06/22 13:44:29;;;;;;;7.93;2.67;;;;;;;;;;6241888;23;20207;-91
2022/06/22 13:47:58;;;;;;;6.50;2.83;;;;;;;;;;6242726;23;20171;-91
2022/06/22 13:51:58;;;;;;;7.85;3.42;;;;;;;;;;6240722;23;20158;-89
2022/06/22 13:55:39;;;;;;;5.85;2.75;;;;;;;;;;6243225;23;20174;-91
2022/06/22 13:58:52;;;;;;;9.60;2.97;;;;;;;;;;6241558;23;20237;-91
2022/06/22 14:02:03;;;;;;;9.23;3.13;;;;;;;;;;6245437;23;20150;-89
2022/06/22 14:05:12;;;;;;;8.80;3.20;;;;;;;;;;6245367;23;20223;-88
2022/06/22 14:08:35;;;;;;;7.45;3.00;;;;;;;;;;6248974;23;20170;-91
2022/06/22 14:11:44;;;;;;;4.03;2.78;;;;;;;;;;6244851;23;20166;-91
2022/06/22 14:14:54;;;;;;;7.32;3.00;;;;;;;;;;6245447;23;20642;-88
2022/06/22 14:18:17;;;;;;;10.63;3.13;;;;;;;;;;6245757;23;20179;-88
2022/06/22 14:21:52;;;;;;;8.55;2.75;;;;;;;;;;6246589;22;20238;-91
2022/06/22 14:25:20;;;;;;;8.80;3.65;;;;;;;;;;6244965;22;20179;-92
2022/06/22 14:28:39;;;;;;;8.20;2.95;;;;;;;;;;6250041;22;20171;-88
2022/06/22 14:31:54;;;;;;;9.00;2.97;;;;;;;;;;6244973;23;20245;-90
2022/06/22 14:35:08;;;;;;;6.57;3.08;;;;;;;;;;6247956;23;20242;-91
2022/06/22 14:38:29;;;;;;;7.82;3.92;;;;;;;;;;6240479;23;20162;-88
2022/06/22 14:41:53;;;;;;;6.93;3.10;;;;;;;;;;6245129;23;20269;-90
2022/06/22 14:45:27;;;;;;;10.75;3.33;;;;;;;;;;6243702;23;20174;-91
2022/06/22 14:48:45;;;;;;;6.75;3.00;;;;;;;;;;6242720;22;20596;-91
2022/06/22 14:52:13;;;;;;;9.88;3.45;;;;;;;;;;6243503;23;20614;-93
2022/06/22 14:55:43;;;;;;;9.65;3.25;;;;;;;;;;6242453;23;20236;-90
2022/06/22 14:59:09;;;;;;;9.20;3.30;;;;;;;;;;6239468;23;20537;-92
2022/06/22 15:02:30;;;;;;;13.88;4.65;;;;;;;;;;6240866;23;20170;-91
2022/06/22 15:09:56;;;;;;;9.93;3.55;;;;;;;;;;6240344;23;20167;-91
2022/06/22 15:17:18;;;;;;;6.05;3.13;;;;;;;;;;6242543;23;20488;-91
2022/06/22 15:20:42;;;;;;;7.65;2.90;;;;;;;;;;6242367;22;20194;-90
2022/06/22 15:23:50;;;;;;;6.03;3.33;;;;;;;;;;6243712;22;20170;-93
2022/06/22 15:26:59;;;;;;;6.55;2.97;;;;;;;;;;6225137;23;20237;-93
2022/06/22 15:30:21;;;;;;;10.02;3.25;;;;;;;;;;6242926;23;20162;-91
2022/06/22 15:33:41;;;;;;;11.63;3.60;;;;;;;;;;6243382;22;20219;-87
2022/06/22 15:37:16;;;;;;;7.30;3.90;;;;;;;;;;6241732;22;20163;-91
2022/06/22 15:40:50;;;;;;;12.02;3.63;;;;;;;;;;6240224;23;20194;-90
2022/06/22 15:44:00;;;;;;;4.18;3.13;;;;;;;;;;6241956;23;20194;-89
2022/06/22 15:47:09;;;;;;;8.75;3.63;;;;;;;;;;6242388;22;20153;-91
2022/06/22 15:50:22;;;;;;;11.30;3.53;;;;;;;;;;6243289;23;20163;-91
2022/06/22 15:53:31;;;;;;;10.95;3.70;;;;;;;;;;6244398;23;20211;-90
2022/06/22 15:56:41;;;;;;;11.20;3.53;;;;;;;;;;6245301;23;20210;-90
2022/06/22 15:59:52;;;;;;;8.57;3.70;;;;;;;;;;6243492;22;20250;-93
2022/06/22 16:03:01;;;;;;;8.93;3.75;;;;;;;;;;6243088;23;20171;-89
2022/06/22 16:06:09;;;;;;;9.00;3.88;;;;;;;;;;6241918;23;20213;-90
2022/06/22 16:09:36;;;;;;;8.65;3.60;;;;;;;;;;6239819;23;20167;-90
2022/06/22 16:16:37;;;;;;;8.63;3.60;;;;;;;;;;6242899;23;20211;-91
2022/06/22 16:20:25;;;;;;;12.15;3.83;;;;;;;;;;6260381;22;20605;-91
2022/06/22 16:23:56;;;;;;;14.35;3.83;;;;;;;;;;6241312;23;20194;-90
2022/06/22 16:27:05;;;;;;;8.18;3.60;;;;;;;;;;6242907;23;20637;-88
2022/06/22 16:30:10;;;;;;;8.32;3.97;;;;;;;;;;6242895;22;20212;-89
2022/06/22 16:33:18;;;;;;;11.68;3.90;;;;;;;;;;6243285;22;20166;-89
2022/06/22 16:36:30;;;;;;;7.85;3.53;;;;;;;;;;6242986;23;20230;-91
2022/06/22 16:39:40;;;;;;;11.75;4.50;;;;;;;;;;6243277;23;20245;-91
2022/06/22 16:42:49;;;;;;;10.20;4.78;;;;;;;;;;6243974;23;20167;-91
2022/06/22 16:45:56;;;;;;;10.98;4.35;;;;;;;;;;6244864;22;20162;-91
2022/06/22 16:49:09;;;;;;;9.98;4.78;;;;;;;;;;6242099;22;20170;-91
2022/06/22 16:52:20;;;;;;;42.53;26.80;;;;;;;;;;6242515;23;20171;-90
2022/06/22 16:55:29;;;;;;;10.75;5.47;;;;;;;;;;6242313;23;20166;-90
2022/06/22 16:58:36;;;;;;;11.27;4.95;;;;;;;;;;6242709;23;20193;-91
2022/06/22 17:01:49;;;;;;;11.52;5.78;;;;;;;;;;6242971;22;20190;-89
2022/06/22 17:04:59;;;;;;;8.52;4.43;;;;;;;;;;6243053;22;20266;-89
2022/06/22 17:08:13;;;;;;;11.82;4.70;;;;;;;;;;6246032;23;20166;-89
2022/06/22 17:11:20;;;;;;;10.25;4.15;;;;;;;;;;6245036;23;20179;-90
2022/06/22 17:14:29;;;;;;;10.40;4.55;;;;;;;;;;6245529;23;20166;-89
2022/06/22 17:17:38;;;;;;;13.82;4.78;;;;;;;;;;6245092;23;20169;-88
2022/06/22 17:21:25;;;;;;;9.32;4.43;;;;;;;;;;6244788;23;20193;-87
2022/06/22 17:24:42;;;;;;;11.60;5.18;;;;;;;;;;6246043;23;20170;-90
2022/06/22 17:27:51;;;;;;;10.90;5.13;;;;;;;;;;6246914;22;20170;-89
2022/06/22 17:31:00;;;;;;;8.63;5.60;;;;;;;;;;6245426;22;20178;-90
2022/06/22 17:34:12;;;;;;;11.23;5.32;;;;;;;;;;6245773;23;20642;-90
2022/06/22 17:37:24;;;;;;;14.32;5.60;;;;;;;;;;6248518;23;20166;-90
2022/06/22 17:40:58;;;;;;;10.13;5.03;;;;;;;;;;6248200;23;20244;-90
2022/06/22 17:44:31;;;;;;;14.52;5.70;;;;;;;;;;6247207;22;20174;-87
2022/06/22 17:48:00;;;;;;;13.00;5.95;;;;;;;;;;6247106;23;20170;-90
2022/06/22 17:51:10;;;;;;;13.10;5.53;;;;;;;;;;6265496;23;20623;-88
2022/06/22 17:54:25;;;;;;;12.95;6.25;;;;;;;;;;6248800;23;20195;-89
2022/06/22 17:57:35;;;;;;;12.55;5.93;;;;;;;;;;6246405;23;20207;-87
2022/06/22 18:00:42;;;;;;;12.93;6.88;;;;;;;;;;6265103;23;20637;-89
2022/06/22 18:03:50;;;;;;;16.95;7.72;;;;;;;;;;6247524;23;20241;-90
2022/06/22 18:06:57;;;;;;;27.80;19.58;;;;;;;;;;6229346;23;20182;-91
2022/06/22 18:10:08;;;;;;;27.55;15.13;;;;;;;;;;6249551;22;20151;-88
2022/06/22 18:13:15;;;;;;;14.07;7.63;;;;;;;;;;6248405;23;20205;-85
2022/06/22 18:16:24;;;;;;;14.93;8.60;;;;;;;;;;6248623;23;20166;-89
2022/06/22 18:19:37;;;;;;;10.85;6.03;;;;;;;;;;6245890;23;20162;-90
2022/06/22 18:22:47;;;;;;;12.57;7.03;;;;;;;;;;6246571;23;20170;-88
2022/06/22 18:25:58;;;;;;;11.18;6.43;;;;;;;;;;6248222;22;20158;-87
2022/06/22 18:29:09;;;;;;;13.85;6.22;;;;;;;;;;6248607;22;20614;-86
2022/06/22 18:32:25;;;;;;;19.40;6.85;;;;;;;;;;6247602;23;20214;-90
2022/06/22 18:35:38;;;;;;;12.52;6.78;;;;;;;;;;6247631;23;20170;-88
2022/06/22 18:42:35;;;;;;;9.68;6.32;;;;;;;;;;6247009;23;20158;-88
2022/06/22 18:46:07;;;;;;;10.63;6.28;;;;;;;;;;6248212;23;20175;-85
2022/06/22 18:49:15;;;;;;;19.92;11.57;;;;;;;;;;6247166;22;20166;-90
2022/06/22 18:52:22;;;;;;;11.93;6.25;;;;;;;;;;6247803;22;20193;-89
2022/06/22 18:55:48;;;;;;;15.18;6.72;;;;;;;;;;6247916;23;20170;-89
2022/06/22 18:59:12;;;;;;;13.13;6.93;;;;;;;;;;6247093;23;20239;-88
2022/06/22 19:02:57;;;;;;;14.50;7.55;;;;;;;;;;6247235;23;20245;-88
2022/06/22 19:06:15;;;;;;;12.73;7.57;;;;;;;;;;6248322;22;20237;-90
2022/06/22 19:09:51;;;;;;;46.80;29.55;;;;;;;;;;6247274;22;20182;-87
2022/06/22 19:13:17;;;;;;;22.30;12.30;;;;;;;;;;6248612;22;20208;-89
2022/06/22 19:16:37;;;;;;;15.05;7.55;;;;;;;;;;6248382;23;20158;-91
2022/06/22 19:20:22;;;;;;;16.35;8.55;;;;;;;;;;6251326;22;20227;-89
2022/06/22 19:23:55;;;;;;;13.07;8.88;;;;;;;;;;6249702;23;20211;-88
2022/06/22 19:27:03;;;;;;;17.20;10.05;;;;;;;;;;6250646;22;20154;-89
2022/06/22 19:30:18;;;;;;;15.90;9.55;;;;;;;;;;6249809;22;20190;-90
2022/06/22 19:37:31;;;;;;;15.48;9.52;;;;;;;;;;6248051;22;20166;-86
2022/06/22 19:41:06;;;;;;;14.98;9.90;;;;;;;;;;6266997;22;20218;-88
2022/06/22 19:44:29;;;;;;;14.43;9.20;;;;;;;;;;6242679;23;20178;-89
2022/06/22 19:47:39;;;;;;;16.02;8.85;;;;;;;;;;6246964;22;20179;-89
2022/06/22 20:20:07;;;;;;;15.57;9.32;;;;;;;;;;6292267;22;20214;-88
2022/06/22 20:23:19;;;;;;;12.52;9.18;;;;;;;;;;6279001;22;20169;-88
2022/06/22 20:26:42;;;;;;;14.88;9.55;;;;;;;;;;6276259;22;20170;-91
2022/06/22 20:29:50;;;;;;;17.95;9.43;;;;;;;;;;6279755;22;20169;-89
2022/06/22 20:33:01;;;;;;;24.65;10.30;;;;;;;;;;6280002;22;20165;-90
2022/06/22 20:36:12;;;;;;;16.73;9.70;;;;;;;;;;6279833;22;20185;-91
2022/06/22 20:39:19;;;;;;;21.10;10.20;;;;;;;;;;6277975;22;20169;-88
2022/06/22 20:42:33;;;;;;;17.05;9.55;;;;;;;;;;6279195;22;20170;-89
2022/06/22 20:45:49;;;;;;;12.55;9.15;;;;;;;;;;6279722;22;20149;-87
2022/06/22 20:49:03;;;;;;;16.60;9.90;;;;;;;;;;6277563;22;20238;-90
2022/06/22 20:52:14;;;;;;;14.40;9.52;;;;;;;;;;6294734;22;20178;-89
2022/06/22 20:55:24;;;;;;;14.48;8.95;;;;;;;;;;6273995;22;20166;-87
2022/06/22 20:58:33;;;;;;;16.75;9.27;;;;;;;;;;6274160;22;20150;-90
2022/06/22 21:01:49;;;;;;;20.65;10.45;;;;;;;;;;6276955;22;20193;-90
2022/06/22 21:04:54;;;;;;;21.08;10.77;;;;;;;;;;6275839;22;20192;-89
2022/06/22 21:08:07;;;;;;;17.92;9.95;;;;;;;;;;6277624;22;20170;-91
2022/06/22 21:11:31;;;;;;;13.55;9.35;;;;;;;;;;6275594;22;20239;-87
2022/06/22 21:14:37;;;;;;;18.15;10.10;;;;;;;;;;6277483;22;20166;-90
2022/06/22 21:17:43;;;;;;;13.52;9.43;;;;;;;;;;6276258;22;20173;-90
2022/06/22 21:20:57;;;;;;;18.05;10.15;;;;;;;;;;6278944;22;20185;-89
2022/06/22 21:24:05;;;;;;;14.88;9.50;;;;;;;;;;6275584;22;20170;-89
2022/06/22 21:27:12;;;;;;;14.25;9.57;;;;;;;;;;6274283;22;20210;-88
2022/06/22 22:26:39;;;;;;;19.17;11.75;;;;;;;;;;6271277;23;20174;-91
2022/06/22 22:29:51;;;;;;;18.85;10.63;;;;;;;;;;6248578;23;20167;-89
2022/06/22 22:32:57;;;;;;;15.45;9.50;;;;;;;;;;6250751;22;20190;-88
2022/06/22 22:36:06;;;;;;;14.35;10.10;;;;;;;;;;6251418;22;20173;-90
2022/06/22 22:46:57;;;;;;;22.67;11.40;;;;;;;;;;6269577;22;20231;-89
2022/06/22 22:50:05;;;;;;;20.60;12.07;;;;;;;;;;6251313;23;20186;-88
2022/06/22 22:53:15;;;;;;;21.20;12.50;;;;;;;;;;6250805;22;20239;-90
2022/06/22 22:56:23;;;;;;;19.95;11.23;;;;;;;;;;6249559;22;20169;-87
2022/06/22 22:59:30;;;;;;;19.92;10.05;;;;;;;;;;6249106;22;20170;-89
2022/06/22 23:02:38;;;;;;;21.73;9.95;;;;;;;;;;6247760;23;20197;-89
2022/06/22 23:05:49;;;;;;;16.55;9.73;;;;;;;;;;6264973;22;20254;-90
2022/06/22 23:08:59;;;;;;;16.88;11.15;;;;;;;;;;6243603;23;20167;-90
2022/06/22 23:12:27;;;;;;;16.15;10.52;;;;;;;;;;6242598;23;20171;-90
2022/06/22 23:15:33;;;;;;;17.88;11.32;;;;;;;;;;6244779;22;20146;-90
2022/06/22 23:18:40;;;;;;;19.50;11.35;;;;;;;;;;6244681;23;20238;-90
2022/06/22 23:21:46;;;;;;;19.67;12.10;;;;;;;;;;6242959;23;20194;-90
2022/06/22 23:24:54;;;;;;;18.85;11.68;;;;;;;;;;6248264;22;20241;-87
2022/06/22 23:27:59;;;;;;;19.83;11.43;;;;;;;;;;6242959;22;20197;-88
2022/06/22 23:31:08;;;;;;;16.27;10.35;;;;;;;;;;6242283;22;20170;-90
2022/06/22 23:34:27;;;;;;;21.05;10.52;;;;;;;;;;6245659;23;20162;-91
2022/06/22 23:37:35;;;;;;;16.27;10.50;;;;;;;;;;6242880;23;20166;-88
